Time;durP1;ratioP1;P1;durP2;ratioP2;P2;SDS_P1;SDS_P2;PMS_P1;PMS_P2;Temp;Humidity;BMP_temperature;BMP_pressure;BME280_temperature;BME280_humidity;BME280_pressure;Samples;Min_cycle;Max_cycle;Signal;HPM_P1;HPM_P2
2023/06/30 00:02:23;;;;;;;4.90;4.38;;;;;;;;;;5036508;28;20053;-77
2023/06/30 00:04:50;;;;;;;6.38;4.90;;;;;;;;;;5039590;28;20133;-76
2023/06/30 00:07:20;;;;;;;6.63;5.25;;;;;;;;;;5044283;28;20048;-76
2023/06/30 00:09:47;;;;;;;6.18;5.30;;;;;;;;;;5044265;28;20048;-76
2023/06/30 00:12:14;;;;;;;6.80;5.10;;;;;;;;;;5038231;28;20132;-77
2023/06/30 00:14:40;;;;;;;5.82;5.25;;;;;;;;;;5032252;28;20053;-77
2023/06/30 00:17:07;;;;;;;5.85;5.18;;;;;;;;;;5032280;28;20061;-77
2023/06/30 00:19:35;;;;;;;6.57;5.15;;;;;;;;;;5032085;28;20049;-77
2023/06/30 00:22:01;;;;;;;7.93;5.15;;;;;;;;;;5032120;28;20084;-77
2023/06/30 00:24:30;;;;;;;6.00;4.65;;;;;;;;;;5027830;28;20095;-77
2023/06/30 00:26:56;;;;;;;6.60;5.22;;;;;;;;;;5031887;28;20064;-77
2023/06/30 00:29:23;;;;;;;5.93;5.32;;;;;;;;;;5032137;28;20079;-77
2023/06/30 00:31:50;;;;;;;7.32;5.13;;;;;;;;;;5032399;28;20037;-77
2023/06/30 00:34:16;;;;;;;5.93;4.90;;;;;;;;;;5032239;28;20136;-77
2023/06/30 00:36:43;;;;;;;7.82;5.00;;;;;;;;;;5032373;28;20124;-77
2023/06/30 00:39:09;;;;;;;5.93;4.97;;;;;;;;;;5032316;28;20049;-78
2023/06/30 00:41:37;;;;;;;6.28;5.28;;;;;;;;;;5032039;28;20128;-77
2023/06/30 00:44:04;;;;;;;6.43;5.40;;;;;;;;;;5032043;28;20145;-77
2023/06/30 00:46:31;;;;;;;6.18;5.35;;;;;;;;;;5032363;28;20049;-77
2023/06/30 00:48:58;;;;;;;6.75;4.78;;;;;;;;;;5032652;28;20384;-77
2023/06/30 00:51:25;;;;;;;5.55;4.93;;;;;;;;;;5031639;28;20053;-77
2023/06/30 00:53:51;;;;;;;6.40;5.22;;;;;;;;;;5031919;28;20050;-77
2023/06/30 00:56:18;;;;;;;7.75;6.03;;;;;;;;;;5032427;28;20077;-77
2023/06/30 00:58:46;;;;;;;5.90;5.03;;;;;;;;;;5031956;28;20482;-77
2023/06/30 01:01:21;;;;;;;7.53;5.78;;;;;;;;;;5032636;28;20132;-77
2023/06/30 01:03:53;;;;;;;8.00;5.63;;;;;;;;;;5031883;28;20073;-78
2023/06/30 01:06:25;;;;;;;5.80;5.20;;;;;;;;;;5032031;28;20045;-77
2023/06/30 01:08:59;;;;;;;7.25;5.88;;;;;;;;;;5033829;28;20506;-77
2023/06/30 01:13:56;;;;;;;6.43;5.00;;;;;;;;;;5017593;28;20353;-77
2023/06/30 01:16:24;;;;;;;7.00;6.00;;;;;;;;;;5018611;28;20146;-77
2023/06/30 01:18:53;;;;;;;7.13;5.60;;;;;;;;;;5018527;28;20057;-77
2023/06/30 01:21:22;;;;;;;6.88;5.80;;;;;;;;;;5018791;28;20052;-77
2023/06/30 01:23:53;;;;;;;7.30;5.78;;;;;;;;;;4999187;28;20057;-77
2023/06/30 01:26:21;;;;;;;6.97;5.38;;;;;;;;;;4999081;28;20046;-77
2023/06/30 01:28:50;;;;;;;6.13;5.22;;;;;;;;;;4998428;28;20568;-76
2023/06/30 01:31:18;;;;;;;7.25;5.88;;;;;;;;;;5001500;28;20078;-76
2023/06/30 01:33:45;;;;;;;6.28;5.32;;;;;;;;;;5015219;28;20106;-76
2023/06/30 01:36:12;;;;;;;7.53;5.55;;;;;;;;;;5026693;28;20074;-76
2023/06/30 01:38:39;;;;;;;5.72;5.13;;;;;;;;;;5025996;28;20050;-76
2023/06/30 01:41:08;;;;;;;7.03;5.90;;;;;;;;;;5025745;28;20057;-76
2023/06/30 01:43:36;;;;;;;6.43;5.78;;;;;;;;;;5025261;28;20069;-76
2023/06/30 01:46:04;;;;;;;5.97;5.38;;;;;;;;;;5011919;28;20050;-76
2023/06/30 01:48:35;;;;;;;6.75;5.32;;;;;;;;;;5011629;28;20046;-76
2023/06/30 01:51:02;;;;;;;7.20;5.93;;;;;;;;;;5019603;28;20060;-76
2023/06/30 01:53:29;;;;;;;6.88;5.75;;;;;;;;;;5024533;28;20050;-76
2023/06/30 01:55:56;;;;;;;6.32;5.72;;;;;;;;;;5030065;28;20069;-76
2023/06/30 01:58:22;;;;;;;6.97;6.28;;;;;;;;;;5008122;28;20081;-76
2023/06/30 02:00:49;;;;;;;7.55;6.45;;;;;;;;;;5019954;28;20129;-77
2023/06/30 02:03:16;;;;;;;7.75;6.15;;;;;;;;;;5013735;28;20053;-77
2023/06/30 02:05:44;;;;;;;7.57;5.80;;;;;;;;;;4999626;28;20104;-77
2023/06/30 02:08:11;;;;;;;7.32;6.25;;;;;;;;;;4997130;28;20050;-77
2023/06/30 02:10:37;;;;;;;7.55;6.10;;;;;;;;;;4997165;28;20046;-76
2023/06/30 02:13:04;;;;;;;7.53;6.30;;;;;;;;;;4995710;28;20081;-76
2023/06/30 02:15:31;;;;;;;7.40;6.18;;;;;;;;;;4995638;28;20489;-76
2023/06/30 02:17:57;;;;;;;7.40;6.20;;;;;;;;;;4995834;28;20070;-77
2023/06/30 02:20:24;;;;;;;7.05;6.03;;;;;;;;;;5011863;28;20073;-76
2023/06/30 02:22:52;;;;;;;7.50;6.28;;;;;;;;;;5014814;28;20076;-76
2023/06/30 02:25:23;;;;;;;9.82;6.05;;;;;;;;;;5015580;28;20050;-76
2023/06/30 02:27:50;;;;;;;6.88;6.13;;;;;;;;;;5015129;28;20108;-77
2023/06/30 02:30:17;;;;;;;6.93;6.05;;;;;;;;;;5003084;28;20571;-77
2023/06/30 02:32:44;;;;;;;7.30;5.68;;;;;;;;;;4995182;28;20046;-77
2023/06/30 02:35:12;;;;;;;7.03;6.13;;;;;;;;;;4995013;28;20052;-77
2023/06/30 02:37:39;;;;;;;8.40;5.97;;;;;;;;;;4995549;28;20051;-77
2023/06/30 02:40:09;;;;;;;7.32;6.47;;;;;;;;;;4995977;28;20125;-77
2023/06/30 02:42:35;;;;;;;7.85;6.22;;;;;;;;;;5013623;28;20046;-77
2023/06/30 02:45:03;;;;;;;9.00;6.63;;;;;;;;;;5014938;28;20453;-77
2023/06/30 02:47:30;;;;;;;6.53;5.75;;;;;;;;;;5014632;28;20084;-76
2023/06/30 02:49:57;;;;;;;7.10;6.00;;;;;;;;;;5012981;28;20045;-76
2023/06/30 02:52:23;;;;;;;6.90;5.80;;;;;;;;;;4995401;28;20093;-75
2023/06/30 02:54:50;;;;;;;7.95;6.57;;;;;;;;;;4995386;28;20135;-76
2023/06/30 02:57:18;;;;;;;7.20;5.95;;;;;;;;;;4994716;28;20050;-76
2023/06/30 02:59:45;;;;;;;8.02;6.38;;;;;;;;;;4995621;28;20046;-76
2023/06/30 03:02:11;;;;;;;6.97;5.82;;;;;;;;;;5012508;28;20133;-77
2023/06/30 03:04:38;;;;;;;6.68;5.90;;;;;;;;;;5000963;28;20088;-77
2023/06/30 03:07:05;;;;;;;8.25;6.00;;;;;;;;;;4997585;28;20054;-77
2023/06/30 03:09:31;;;;;;;6.75;6.05;;;;;;;;;;4996867;28;20130;-77
2023/06/30 03:11:58;;;;;;;6.65;6.05;;;;;;;;;;5007125;28;20084;-77
2023/06/30 03:14:26;;;;;;;7.10;6.15;;;;;;;;;;5016618;28;20129;-78
2023/06/30 03:16:53;;;;;;;6.90;6.03;;;;;;;;;;5016920;28;20124;-77
2023/06/30 03:19:19;;;;;;;9.38;6.60;;;;;;;;;;5016278;28;20081;-77
2023/06/30 03:21:46;;;;;;;8.50;6.38;;;;;;;;;;5009996;28;20117;-77
2023/06/30 03:24:13;;;;;;;8.05;5.97;;;;;;;;;;4996682;28;20046;-77
2023/06/30 03:26:40;;;;;;;8.25;6.90;;;;;;;;;;4997923;28;20496;-77
2023/06/30 03:29:06;;;;;;;9.35;6.80;;;;;;;;;;5000730;28;20054;-77
2023/06/30 03:31:34;;;;;;;8.13;6.80;;;;;;;;;;4996899;28;20493;-77
2023/06/30 03:34:01;;;;;;;7.50;6.60;;;;;;;;;;5005959;28;20411;-77
2023/06/30 03:36:28;;;;;;;7.63;6.78;;;;;;;;;;4999485;28;20050;-76
2023/06/30 03:38:54;;;;;;;11.05;6.75;;;;;;;;;;4999110;28;20074;-77
2023/06/30 03:41:21;;;;;;;7.05;6.10;;;;;;;;;;4996760;28;20137;-77
2023/06/30 03:43:48;;;;;;;8.38;6.47;;;;;;;;;;4999477;28;20548;-77
2023/06/30 03:46:18;;;;;;;9.18;6.40;;;;;;;;;;4997436;28;20134;-77
2023/06/30 03:48:45;;;;;;;;;;;;;;;;;;4996492;28;20054;-77
2023/06/30 03:51:12;;;;;;;7.90;6.20;;;;;;;;;;4995163;28;20354;-77
2023/06/30 03:53:39;;;;;;;8.93;7.30;;;;;;;;;;4994489;28;20130;-77
2023/06/30 03:56:06;;;;;;;7.68;6.88;;;;;;;;;;4994758;28;20050;-77
2023/06/30 03:58:32;;;;;;;8.70;7.00;;;;;;;;;;4994601;28;20133;-77
2023/06/30 04:00:59;;;;;;;9.35;6.53;;;;;;;;;;4994795;28;20129;-78
2023/06/30 04:03:26;;;;;;;8.43;7.63;;;;;;;;;;4998301;28;20417;-77
2023/06/30 04:05:54;;;;;;;14.57;9.15;;;;;;;;;;4996473;28;20233;-78
2023/06/30 04:08:21;;;;;;;11.73;10.10;;;;;;;;;;4995888;28;20060;-77
2023/06/30 04:10:48;;;;;;;12.65;10.90;;;;;;;;;;4993773;28;20125;-77
2023/06/30 04:13:14;;;;;;;11.50;10.35;;;;;;;;;;5003670;28;20045;-76
2023/06/30 04:15:41;;;;;;;11.43;9.88;;;;;;;;;;5009500;28;20132;-76
2023/06/30 04:18:08;;;;;;;10.43;9.38;;;;;;;;;;5012800;28;20045;-76
2023/06/30 04:20:34;;;;;;;12.95;9.45;;;;;;;;;;5012184;28;20056;-76
2023/06/30 04:23:02;;;;;;;10.73;9.63;;;;;;;;;;5013075;28;20401;-77
2023/06/30 04:25:29;;;;;;;11.45;9.80;;;;;;;;;;5005543;28;20042;-77
2023/06/30 04:27:55;;;;;;;10.52;9.43;;;;;;;;;;4993918;28;20082;-78
2023/06/30 04:30:22;;;;;;;11.48;9.85;;;;;;;;;;4994185;28;20457;-78
2023/06/30 04:32:49;;;;;;;11.93;10.48;;;;;;;;;;4994110;28;20446;-77
2023/06/30 04:35:16;;;;;;;11.73;9.82;;;;;;;;;;5007401;28;20046;-77
2023/06/30 04:37:42;;;;;;;11.50;10.23;;;;;;;;;;5006797;28;20520;-77
2023/06/30 04:40:11;;;;;;;10.77;9.45;;;;;;;;;;4994805;28;20085;-76
2023/06/30 04:42:38;;;;;;;11.38;9.23;;;;;;;;;;4994326;28;20046;-77
2023/06/30 04:45:06;;;;;;;11.88;8.52;;;;;;;;;;5004330;28;20501;-77
2023/06/30 04:47:33;;;;;;;12.02;8.02;;;;;;;;;;5014708;28;20497;-78
2023/06/30 04:49:59;;;;;;;10.18;7.82;;;;;;;;;;5015101;28;20050;-78
2023/06/30 04:52:26;;;;;;;9.48;7.50;;;;;;;;;;5014903;28;20124;-78
2023/06/30 04:54:54;;;;;;;11.40;8.20;;;;;;;;;;5014504;28;20556;-77
2023/06/30 04:57:23;;;;;;;11.43;8.23;;;;;;;;;;5012622;28;20208;-77
2023/06/30 04:59:50;;;;;;;13.27;8.60;;;;;;;;;;5012849;28;20046;-77
2023/06/30 05:02:17;;;;;;;13.27;9.02;;;;;;;;;;5013291;28;20053;-77
2023/06/30 05:04:45;;;;;;;11.40;8.40;;;;;;;;;;5013572;28;20096;-79
2023/06/30 05:07:11;;;;;;;10.27;8.23;;;;;;;;;;5014719;28;20054;-78
2023/06/30 05:09:41;;;;;;;11.98;9.20;;;;;;;;;;5020437;28;20057;-78
2023/06/30 05:12:08;;;;;;;12.70;9.07;;;;;;;;;;5024223;28;20046;-78
2023/06/30 05:14:36;;;;;;;11.50;9.05;;;;;;;;;;5015767;28;20124;-78
2023/06/30 05:17:03;;;;;;;11.48;8.93;;;;;;;;;;5006860;28;20473;-78
2023/06/30 05:19:30;;;;;;;11.05;8.88;;;;;;;;;;5013684;28;20584;-78
2023/06/30 05:21:56;;;;;;;14.25;8.98;;;;;;;;;;5013978;28;20046;-78
2023/06/30 05:24:26;;;;;;;14.77;9.52;;;;;;;;;;5013966;28;20050;-78
2023/06/30 05:26:53;;;;;;;12.38;8.65;;;;;;;;;;5006188;28;20702;-78
2023/06/30 05:29:23;;;;;;;10.60;8.57;;;;;;;;;;5014772;28;20390;-80
2023/06/30 05:31:51;;;;;;;12.00;8.57;;;;;;;;;;5017085;28;20074;-78
2023/06/30 05:34:18;;;;;;;10.10;8.40;;;;;;;;;;5017267;28;20085;-77
2023/06/30 05:36:45;;;;;;;11.57;8.85;;;;;;;;;;5009744;28;20042;-78
2023/06/30 05:39:11;;;;;;;13.93;9.23;;;;;;;;;;4976857;28;20098;-78
2023/06/30 05:41:38;;;;;;;11.23;8.77;;;;;;;;;;5005040;28;20112;-78
2023/06/30 05:44:06;;;;;;;11.32;9.27;;;;;;;;;;4994270;28;20564;-78
2023/06/30 05:46:34;;;;;;;11.25;8.88;;;;;;;;;;4997992;28;20525;-79
2023/06/30 05:49:05;;;;;;;10.68;9.23;;;;;;;;;;5015141;28;20072;-78
2023/06/30 05:51:32;;;;;;;12.13;9.45;;;;;;;;;;5014499;28;20128;-79
2023/06/30 05:53:58;;;;;;;12.75;9.38;;;;;;;;;;5016243;28;20046;-79
2023/06/30 05:56:25;;;;;;;12.10;10.38;;;;;;;;;;5019642;28;20052;-79
2023/06/30 05:58:52;;;;;;;14.32;10.82;;;;;;;;;;5012043;28;20073;-78
2023/06/30 06:01:18;;;;;;;16.00;11.05;;;;;;;;;;5000217;28;20092;-78
2023/06/30 06:03:45;;;;;;;12.63;10.45;;;;;;;;;;4997552;28;20484;-77
2023/06/30 06:06:13;;;;;;;11.65;9.73;;;;;;;;;;4997275;28;20576;-78
2023/06/30 06:08:40;;;;;;;14.25;9.85;;;;;;;;;;4997345;28;20416;-78
2023/06/30 06:11:07;;;;;;;13.68;10.20;;;;;;;;;;4997642;28;20047;-77
2023/06/30 06:13:34;;;;;;;12.60;10.15;;;;;;;;;;4997703;28;20057;-77
2023/06/30 06:16:01;;;;;;;14.18;10.80;;;;;;;;;;4996734;28;20065;-78
2023/06/30 06:18:28;;;;;;;14.07;11.77;;;;;;;;;;4998390;28;20077;-78
2023/06/30 06:20:55;;;;;;;12.77;11.18;;;;;;;;;;4999154;28;20052;-78
2023/06/30 06:23:24;;;;;;;14.25;12.18;;;;;;;;;;4999007;28;20132;-78
2023/06/30 06:25:51;;;;;;;15.73;12.05;;;;;;;;;;4997892;28;20046;-78
2023/06/30 06:28:18;;;;;;;13.15;11.32;;;;;;;;;;4997228;28;20085;-78
2023/06/30 06:30:45;;;;;;;13.57;10.93;;;;;;;;;;5004510;28;20122;-77
2023/06/30 06:33:11;;;;;;;12.75;10.90;;;;;;;;;;5015518;28;20042;-78
2023/06/30 06:35:38;;;;;;;16.38;11.65;;;;;;;;;;5017501;28;20057;-78
2023/06/30 06:38:05;;;;;;;13.93;11.10;;;;;;;;;;5016868;28;20085;-78
2023/06/30 06:40:33;;;;;;;14.88;11.80;;;;;;;;;;5008981;28;20467;-77
2023/06/30 06:43:00;;;;;;;13.98;11.15;;;;;;;;;;5004110;28;20047;-77
2023/06/30 06:45:27;;;;;;;12.75;10.82;;;;;;;;;;5003274;28;20097;-76
2023/06/30 06:48:22;;;;;;;15.00;12.05;;;;;;;;;;4999107;28;20670;-77
2023/06/30 06:50:50;;;;;;;14.65;11.73;;;;;;;;;;4996328;28;20113;-77
2023/06/30 06:53:22;;;;;;;14.93;11.32;;;;;;;;;;4995527;28;20133;-77
2023/06/30 06:55:51;;;;;;;14.65;11.32;;;;;;;;;;4995664;28;20050;-77
2023/06/30 06:58:19;;;;;;;15.30;12.57;;;;;;;;;;4996743;28;20074;-78
2023/06/30 07:00:47;;;;;;;15.30;11.25;;;;;;;;;;5002893;28;20123;-78
2023/06/30 07:03:14;;;;;;;15.57;11.25;;;;;;;;;;5015036;28;20077;-78
2023/06/30 07:05:43;;;;;;;14.52;11.77;;;;;;;;;;5013827;28;20081;-77
2023/06/30 07:08:10;;;;;;;13.90;11.32;;;;;;;;;;5014869;28;20050;-77
2023/06/30 07:10:36;;;;;;;17.38;13.15;;;;;;;;;;5014840;28;20077;-77
2023/06/30 07:15:42;;;;;;;17.00;13.00;;;;;;;;;;5053734;28;20061;-78
2023/06/30 07:18:09;;;;;;;15.98;12.38;;;;;;;;;;5057184;28;20073;-78
2023/06/30 07:20:35;;;;;;;15.75;12.65;;;;;;;;;;5057978;28;20060;-78
2023/06/30 07:23:02;;;;;;;16.42;12.65;;;;;;;;;;5059401;28;20056;-78
2023/06/30 07:25:29;;;;;;;16.65;12.02;;;;;;;;;;5057135;28;20041;-82
2023/06/30 07:27:58;;;;;;;16.48;12.88;;;;;;;;;;5039515;28;20089;-77
2023/06/30 07:30:28;;;;;;;17.10;12.82;;;;;;;;;;5036135;28;20467;-78
2023/06/30 07:32:56;;;;;;;17.17;13.07;;;;;;;;;;5033477;28;20145;-79
2023/06/30 07:35:23;;;;;;;19.00;13.25;;;;;;;;;;5045854;28;20068;-78
2023/06/30 07:37:51;;;;;;;16.77;12.52;;;;;;;;;;5040644;28;20049;-79
2023/06/30 07:40:18;;;;;;;17.88;12.20;;;;;;;;;;5041291;28;20579;-79
2023/06/30 07:42:45;;;;;;;16.80;12.80;;;;;;;;;;5038037;28;20077;-80
2023/06/30 07:45:14;;;;;;;17.23;12.70;;;;;;;;;;5034626;28;20057;-78
2023/06/30 07:47:41;;;;;;;17.17;13.60;;;;;;;;;;5029547;28;20124;-78
2023/06/30 07:50:12;;;;;;;17.23;12.13;;;;;;;;;;5041037;28;20041;-78
2023/06/30 07:52:41;;;;;;;20.08;13.75;;;;;;;;;;5034211;28;20042;-79
2023/06/30 07:55:08;;;;;;;20.73;13.48;;;;;;;;;;5039095;28;20076;-81
2023/06/30 07:57:35;;;;;;;20.50;14.52;;;;;;;;;;5035684;28;20780;-82
2023/06/30 08:00:02;;;;;;;18.80;14.57;;;;;;;;;;5034649;28;20045;-80
2023/06/30 08:02:29;;;;;;;18.95;14.02;;;;;;;;;;5037311;28;20054;-80
2023/06/30 08:04:56;;;;;;;19.17;13.68;;;;;;;;;;5032794;28;20108;-80
2023/06/30 08:07:24;;;;;;;22.00;14.75;;;;;;;;;;5045685;28;20105;-81
2023/06/30 08:09:51;;;;;;;21.48;13.98;;;;;;;;;;5036097;28;20128;-78
2023/06/30 08:12:17;;;;;;;18.70;13.85;;;;;;;;;;5030989;28;20038;-78
2023/06/30 08:14:44;;;;;;;19.15;13.95;;;;;;;;;;5035710;28;20045;-79
2023/06/30 08:17:11;;;;;;;19.55;13.13;;;;;;;;;;5051279;28;20129;-79
2023/06/30 08:19:41;;;;;;;20.13;14.25;;;;;;;;;;5056120;28;20070;-82
2023/06/30 08:22:07;;;;;;;;;;;;;;;;;;5035347;28;20057;-82
2023/06/30 08:24:35;;;;;;;19.02;12.95;;;;;;;;;;5040369;28;19967;-81
2023/06/30 08:27:02;;;;;;;19.42;14.18;;;;;;;;;;5038312;28;20067;-81
2023/06/30 08:29:29;;;;;;;20.88;14.15;;;;;;;;;;5034930;28;20053;-82
2023/06/30 08:31:55;;;;;;;19.00;13.45;;;;;;;;;;5034867;28;20051;-80
2023/06/30 08:34:25;;;;;;;19.20;14.02;;;;;;;;;;5033625;28;20049;-81
2023/06/30 08:36:53;;;;;;;19.50;14.60;;;;;;;;;;5033320;28;20558;-80
2023/06/30 08:39:20;;;;;;;19.48;13.60;;;;;;;;;;5033387;28;20052;-80
2023/06/30 08:41:50;;;;;;;18.67;13.50;;;;;;;;;;5032173;28;20120;-79
2023/06/30 08:44:19;;;;;;;20.02;14.25;;;;;;;;;;5027506;28;20053;-79
2023/06/30 08:46:46;;;;;;;19.88;14.45;;;;;;;;;;5039128;28;20123;-79
2023/06/30 08:49:13;;;;;;;18.17;13.38;;;;;;;;;;5052133;28;20045;-79
2023/06/30 08:51:41;;;;;;;18.88;13.85;;;;;;;;;;5035443;28;20045;-77
2023/06/30 08:54:09;;;;;;;16.45;12.98;;;;;;;;;;5029277;28;20045;-76
2023/06/30 08:56:39;;;;;;;15.95;12.80;;;;;;;;;;5030126;28;20049;-76
2023/06/30 08:59:08;;;;;;;18.75;13.32;;;;;;;;;;5038777;28;20069;-78
2023/06/30 09:01:36;;;;;;;17.70;13.50;;;;;;;;;;5043143;28;20061;-81
2023/06/30 09:04:04;;;;;;;18.42;13.90;;;;;;;;;;5033817;28;20424;-80
2023/06/30 09:06:33;;;;;;;17.23;13.32;;;;;;;;;;5035797;28;20124;-80
2023/06/30 09:09:03;;;;;;;14.45;11.82;;;;;;;;;;5017060;28;20484;-79
2023/06/30 09:11:31;;;;;;;17.65;11.95;;;;;;;;;;5015685;28;20054;-79
2023/06/30 09:14:01;;;;;;;14.85;11.38;;;;;;;;;;4977531;28;1050567;-78
2023/06/30 09:16:29;;;;;;;;;;;;;;;;;;5020666;28;20456;-81
2023/06/30 09:18:56;;;;;;;13.60;10.32;;;;;;;;;;5035277;28;19996;-78
2023/06/30 09:21:23;;;;;;;12.90;9.57;;;;;;;;;;5031019;28;20073;-78
2023/06/30 09:23:50;;;;;;;11.77;9.38;;;;;;;;;;5033521;28;20076;-77
2023/06/30 09:26:18;;;;;;;11.60;9.80;;;;;;;;;;5032613;28;20084;-79
2023/06/30 09:28:45;;;;;;;12.95;9.40;;;;;;;;;;5035590;28;20084;-78
2023/06/30 09:31:12;;;;;;;14.25;10.05;;;;;;;;;;5035388;28;20050;-77
2023/06/30 09:33:40;;;;;;;14.57;10.65;;;;;;;;;;5034208;28;20548;-77
2023/06/30 09:36:07;;;;;;;13.95;10.60;;;;;;;;;;5035829;28;20049;-77
2023/06/30 09:38:35;;;;;;;11.80;9.63;;;;;;;;;;5028300;28;20133;-82
2023/06/30 09:41:05;;;;;;;14.63;10.65;;;;;;;;;;5016180;28;20128;-78
2023/06/30 09:43:32;;;;;;;14.27;10.60;;;;;;;;;;5031761;28;20449;-79
2023/06/30 09:46:00;;;;;;;14.43;10.77;;;;;;;;;;5034974;28;20080;-82
2023/06/30 09:48:30;;;;;;;13.55;9.75;;;;;;;;;;5055981;28;20047;-81
2023/06/30 09:50:58;;;;;;;;;;;;;;;;;;5052828;28;20056;-82
2023/06/30 09:53:25;;;;;;;12.55;9.20;;;;;;;;;;5032364;28;19927;-83
2023/06/30 09:55:53;;;;;;;13.30;9.20;;;;;;;;;;5028380;28;20049;-80
2023/06/30 09:58:20;;;;;;;11.50;9.95;;;;;;;;;;5035170;28;20046;-80
2023/06/30 10:00:48;;;;;;;12.27;9.50;;;;;;;;;;5035251;28;20144;-80
2023/06/30 10:03:16;;;;;;;13.20;9.80;;;;;;;;;;5025105;28;20125;-80
2023/06/30 10:05:44;;;;;;;10.90;9.10;;;;;;;;;;5029463;28;20045;-80
2023/06/30 10:08:13;;;;;;;10.88;8.15;;;;;;;;;;5034813;28;20629;-80
2023/06/30 10:10:42;;;;;;;12.88;9.27;;;;;;;;;;5026303;28;20103;-80
2023/06/30 10:13:09;;;;;;;12.65;9.38;;;;;;;;;;5030641;28;20085;-79
2023/06/30 10:15:37;;;;;;;11.98;9.05;;;;;;;;;;5033942;28;20111;-79
2023/06/30 10:18:05;;;;;;;11.82;9.07;;;;;;;;;;5031636;28;20390;-79
2023/06/30 10:20:32;;;;;;;12.98;9.90;;;;;;;;;;5016236;28;20120;-79
2023/06/30 10:23:01;;;;;;;13.32;10.40;;;;;;;;;;5014858;28;20092;-79
2023/06/30 10:25:31;;;;;;;15.55;12.05;;;;;;;;;;5025615;28;20049;-79
2023/06/30 10:27:58;;;;;;;18.25;13.55;;;;;;;;;;5026253;28;20676;-80
2023/06/30 10:30:25;;;;;;;18.42;12.07;;;;;;;;;;5021548;28;20129;-80
2023/06/30 10:32:53;;;;;;;16.70;11.85;;;;;;;;;;5029515;28;20046;-78
2023/06/30 10:35:21;;;;;;;16.10;12.77;;;;;;;;;;5032764;28;20055;-79
2023/06/30 10:37:48;;;;;;;19.27;13.65;;;;;;;;;;5030862;28;20459;-79
2023/06/30 10:40:24;;;;;;;20.23;13.73;;;;;;;;;;5039280;28;20052;-79
2023/06/30 10:42:54;;;;;;;20.75;14.32;;;;;;;;;;5024274;28;20050;-80
2023/06/30 10:45:21;;;;;;;;;;;;;;;;;;5026715;28;20641;-79
2023/06/30 10:47:51;;;;;;;18.70;12.63;;;;;;;;;;5020359;28;20379;-78
2023/06/30 10:50:18;;;;;;;;;;;;;;;;;;5035846;28;20042;-77
2023/06/30 10:52:53;;;;;;;20.58;13.43;;;;;;;;;;5030025;28;19921;-79
2023/06/30 10:55:22;;;;;;;20.42;13.55;;;;;;;;;;5036782;28;20042;-79
2023/06/30 10:57:54;;;;;;;20.33;12.98;;;;;;;;;;5036551;28;20071;-78
2023/06/30 11:00:24;;;;;;;15.50;11.02;;;;;;;;;;5036925;28;20065;-78
2023/06/30 11:02:56;;;;;;;16.38;11.88;;;;;;;;;;5037119;28;20045;-78
2023/06/30 11:05:25;;;;;;;17.25;10.77;;;;;;;;;;5055813;28;20127;-79
2023/06/30 11:07:53;;;;;;;17.20;11.55;;;;;;;;;;5045194;28;20124;-79
2023/06/30 11:10:35;;;;;;;17.65;11.65;;;;;;;;;;5040966;28;20139;-79
2023/06/30 11:13:05;;;;;;;20.00;11.93;;;;;;;;;;5018220;28;20042;-78
2023/06/30 11:15:37;;;;;;;17.77;11.60;;;;;;;;;;5016717;28;20406;-79
2023/06/30 11:18:05;;;;;;;18.13;11.52;;;;;;;;;;5015847;28;20046;-79
2023/06/30 11:20:32;;;;;;;16.20;10.52;;;;;;;;;;5018054;28;20121;-79
2023/06/30 11:23:01;;;;;;;18.50;11.27;;;;;;;;;;5018130;28;20073;-79
2023/06/30 11:25:28;;;;;;;18.92;11.65;;;;;;;;;;5018927;28;20046;-78
2023/06/30 11:27:56;;;;;;;16.20;11.18;;;;;;;;;;5017290;28;20050;-79
2023/06/30 11:30:25;;;;;;;17.77;10.48;;;;;;;;;;5023068;28;20046;-79
2023/06/30 11:32:57;;;;;;;14.85;10.48;;;;;;;;;;5040127;28;20042;-80
2023/06/30 11:35:28;;;;;;;12.65;8.70;;;;;;;;;;5036063;28;20041;-79
2023/06/30 11:37:56;;;;;;;13.38;8.30;;;;;;;;;;5036199;28;20504;-79
2023/06/30 11:40:22;;;;;;;13.93;8.68;;;;;;;;;;5035517;28;20492;-79
2023/06/30 11:42:50;;;;;;;14.00;9.05;;;;;;;;;;5034892;28;20132;-80
2023/06/30 11:45:20;;;;;;;12.60;8.50;;;;;;;;;;5033157;28;20137;-80
2023/06/30 11:47:51;;;;;;;12.20;7.85;;;;;;;;;;5032364;28;20065;-80
2023/06/30 11:50:18;;;;;;;13.25;8.07;;;;;;;;;;5033609;28;20050;-79
2023/06/30 11:52:47;;;;;;;17.27;9.65;;;;;;;;;;5034468;28;20136;-78
2023/06/30 11:55:15;;;;;;;17.88;10.20;;;;;;;;;;5051237;28;20033;-79
2023/06/30 11:57:47;;;;;;;10.68;6.95;;;;;;;;;;5050365;28;20092;-80
2023/06/30 12:00:16;;;;;;;9.65;6.25;;;;;;;;;;5026255;28;20076;-79
2023/06/30 12:02:45;;;;;;;13.30;8.10;;;;;;;;;;5032209;28;20100;-80
2023/06/30 12:05:15;;;;;;;11.80;7.38;;;;;;;;;;5037400;28;20053;-79
2023/06/30 12:07:42;;;;;;;11.52;7.32;;;;;;;;;;5037705;28;20041;-79
2023/06/30 12:10:09;;;;;;;12.60;8.30;;;;;;;;;;5024760;28;20105;-80
2023/06/30 12:12:36;;;;;;;11.95;7.50;;;;;;;;;;5038918;28;20041;-80
2023/06/30 12:15:05;;;;;;;12.25;7.57;;;;;;;;;;5031515;28;20073;-78
2023/06/30 12:17:36;;;;;;;13.32;8.00;;;;;;;;;;5019164;28;20054;-77
2023/06/30 12:20:03;;;;;;;11.85;7.13;;;;;;;;;;5018570;28;20501;-79
2023/06/30 12:22:31;;;;;;;13.48;8.00;;;;;;;;;;5035664;28;20080;-78
2023/06/30 12:24:59;;;;;;;10.93;6.57;;;;;;;;;;5017618;28;20145;-79
2023/06/30 12:27:27;;;;;;;11.32;7.15;;;;;;;;;;5036828;28;20050;-79
2023/06/30 12:29:54;;;;;;;12.07;8.23;;;;;;;;;;5037672;28;20050;-80
2023/06/30 12:32:22;;;;;;;12.55;7.90;;;;;;;;;;5036339;28;20041;-78
2023/06/30 12:34:49;;;;;;;12.32;7.47;;;;;;;;;;5037387;28;20558;-78
2023/06/30 12:37:17;;;;;;;13.15;8.13;;;;;;;;;;5037403;28;20045;-78
2023/06/30 12:39:45;;;;;;;12.10;8.13;;;;;;;;;;5055183;28;20052;-78
2023/06/30 12:42:12;;;;;;;13.00;8.48;;;;;;;;;;5057211;28;20030;-79
2023/06/30 12:44:39;;;;;;;13.07;8.60;;;;;;;;;;5057008;28;20064;-80
2023/06/30 12:47:07;;;;;;;13.32;8.38;;;;;;;;;;5056284;28;20040;-80
2023/06/30 12:49:36;;;;;;;14.00;8.45;;;;;;;;;;5050503;28;20057;-78
2023/06/30 12:52:04;;;;;;;12.68;8.23;;;;;;;;;;5052463;28;20052;-80
2023/06/30 12:54:31;;;;;;;12.57;8.52;;;;;;;;;;5052262;28;20373;-79
2023/06/30 12:56:59;;;;;;;13.30;8.52;;;;;;;;;;5026045;28;20063;-78
2023/06/30 12:59:25;;;;;;;11.57;7.85;;;;;;;;;;5032748;28;20056;-78
2023/06/30 13:01:52;;;;;;;13.80;8.63;;;;;;;;;;5034071;28;20137;-79
2023/06/30 13:04:19;;;;;;;12.60;8.35;;;;;;;;;;5037206;28;20076;-79
2023/06/30 13:06:46;;;;;;;11.95;8.07;;;;;;;;;;5037546;28;20095;-79
2023/06/30 13:09:12;;;;;;;14.30;8.90;;;;;;;;;;5038702;28;20133;-79
2023/06/30 13:11:39;;;;;;;11.98;7.72;;;;;;;;;;5027451;28;20496;-78
2023/06/30 13:14:07;;;;;;;11.38;7.97;;;;;;;;;;5016723;28;20133;-79
2023/06/30 13:16:34;;;;;;;12.38;7.72;;;;;;;;;;5033905;28;20049;-78
2023/06/30 13:19:00;;;;;;;12.75;8.45;;;;;;;;;;5027749;28;20041;-79
2023/06/30 13:21:27;;;;;;;12.95;8.45;;;;;;;;;;5032143;28;20644;-80
2023/06/30 13:23:54;;;;;;;12.05;8.23;;;;;;;;;;5036413;28;20049;-81
2023/06/30 13:26:20;;;;;;;11.30;7.80;;;;;;;;;;5035203;28;20054;-79
2023/06/30 13:28:47;;;;;;;12.60;8.00;;;;;;;;;;5034391;28;20080;-79
2023/06/30 13:31:15;;;;;;;12.98;8.52;;;;;;;;;;5035299;28;20069;-80
2023/06/30 13:33:42;;;;;;;12.95;8.00;;;;;;;;;;5042764;28;20041;-80
2023/06/30 13:36:10;;;;;;;13.27;8.52;;;;;;;;;;5035798;28;20049;-79
2023/06/30 13:38:37;;;;;;;11.95;8.15;;;;;;;;;;5034540;28;20038;-80
2023/06/30 13:41:03;;;;;;;12.68;8.60;;;;;;;;;;5017356;28;20092;-78
2023/06/30 13:43:30;;;;;;;13.85;9.07;;;;;;;;;;5017755;28;20480;-80
2023/06/30 13:45:58;;;;;;;14.00;8.40;;;;;;;;;;5017331;28;20152;-79
2023/06/30 13:48:26;;;;;;;13.35;8.93;;;;;;;;;;5017574;28;20520;-78
2023/06/30 13:50:52;;;;;;;12.98;8.85;;;;;;;;;;5024388;28;20046;-79
2023/06/30 13:53:19;;;;;;;13.05;8.43;;;;;;;;;;5038268;28;20054;-78
2023/06/30 13:55:45;;;;;;;13.95;8.77;;;;;;;;;;5040078;28;20114;-78
2023/06/30 13:58:12;;;;;;;13.07;9.38;;;;;;;;;;5033935;28;20055;-81
2023/06/30 14:00:39;;;;;;;13.25;9.27;;;;;;;;;;5029268;28;20049;-77
2023/06/30 14:03:06;;;;;;;12.63;8.82;;;;;;;;;;5029875;28;20048;-77
2023/06/30 14:05:34;;;;;;;12.27;8.55;;;;;;;;;;5041968;28;20452;-80
2023/06/30 14:08:00;;;;;;;13.15;8.90;;;;;;;;;;5030996;28;20053;-80
2023/06/30 14:10:27;;;;;;;14.55;10.18;;;;;;;;;;5033182;28;20145;-78
2023/06/30 14:12:54;;;;;;;15.05;10.07;;;;;;;;;;5032551;28;20052;-77
2023/06/30 14:15:21;;;;;;;13.48;9.18;;;;;;;;;;5032223;28;20140;-77
2023/06/30 14:17:47;;;;;;;14.38;9.88;;;;;;;;;;5038700;28;20524;-79
2023/06/30 14:20:14;;;;;;;15.63;10.57;;;;;;;;;;5040144;28;20080;-80
2023/06/30 14:22:42;;;;;;;19.30;12.70;;;;;;;;;;5030203;28;20144;-79
2023/06/30 14:25:20;;;;;;;19.27;12.73;;;;;;;;;;5038810;28;20081;-77
2023/06/30 14:27:47;;;;;;;21.08;13.18;;;;;;;;;;5030148;28;20067;-76
2023/06/30 14:30:14;;;;;;;18.50;12.70;;;;;;;;;;5030968;28;20055;-76
2023/06/30 14:32:40;;;;;;;17.80;12.20;;;;;;;;;;5035539;28;20564;-77
2023/06/30 14:35:07;;;;;;;15.95;11.23;;;;;;;;;;5034927;28;20084;-75
2023/06/30 14:37:34;;;;;;;16.27;10.45;;;;;;;;;;5034522;28;20045;-76
2023/06/30 14:40:02;;;;;;;14.80;10.48;;;;;;;;;;5033867;28;20045;-77